sensor_id;sensor_type;location;lat;lon;timestamp;temperature;humidity
66128;DHT22;52925;52.436;-1.952;2023-12-04T05:12:39;6.80;99.90
66128;DHT22;52925;52.436;-1.952;2023-12-04T05:14:00;6.80;99.90
66128;DHT22;52925;52.436;-1.952;2023-12-04T05:15:20;6.80;99.90
66128;DHT22;52925;52.436;-1.952;2023-12-04T05:16:41;6.90;99.90
66128;DHT22;52925;52.436;-1.952;2023-12-04T05:18:01;6.80;99.90
66128;DHT22;52925;52.436;-1.952;2023-12-04T05:19:21;6.80;99.90
66128;DHT22;52925;52.436;-1.952;2023-12-04T05:20:41;6.80;99.90
66128;DHT22;52925;52.436;-1.952;2023-12-04T05:22:02;6.80;99.90
66128;DHT22;52925;52.436;-1.952;2023-12-04T05:23:23;6.80;99.90
66128;DHT22;52925;52.436;-1.952;2023-12-04T05:24:43;6.80;99.90
66128;DHT22;52925;52.436;-1.952;2023-12-04T05:26:03;6.80;99.90
66128;DHT22;52925;52.436;-1.952;2023-12-04T05:27:24;6.80;99.90
66128;DHT22;52925;52.436;-1.952;2023-12-04T05:28:46;6.90;99.90
66128;DHT22;52925;52.436;-1.952;2023-12-04T05:30:07;6.90;99.90
66128;DHT22;52925;52.436;-1.952;2023-12-04T05:31:27;6.90;99.90
66128;DHT22;52925;52.436;-1.952;2023-12-04T05:32:48;6.90;99.90
66128;DHT22;52925;52.436;-1.952;2023-12-04T05:34:09;6.90;99.90
66128;DHT22;52925;52.436;-1.952;2023-12-04T05:35:28;6.80;99.90
66128;DHT22;52925;52.436;-1.952;2023-12-04T05:36:52;6.90;99.90
66128;DHT22;52925;52.436;-1.952;2023-12-04T05:38:12;6.80;99.90
66128;DHT22;52925;52.436;-1.952;2023-12-04T05:39:33;6.90;99.90
66128;DHT22;52925;52.436;-1.952;2023-12-04T05:40:52;6.90;99.90
66128;DHT22;52925;52.436;-1.952;2023-12-04T05:42:14;6.90;99.90
66128;DHT22;52925;52.436;-1.952;2023-12-04T05:43:34;6.90;99.90
66128;DHT22;52925;52.436;-1.952;2023-12-04T05:44:56;6.90;99.90
66128;DHT22;52925;52.436;-1.952;2023-12-04T05:46:16;6.90;99.90
66128;DHT22;52925;52.436;-1.952;2023-12-04T05:47:37;6.90;99.90
66128;DHT22;52925;52.436;-1.952;2023-12-04T05:48:57;6.90;99.90
66128;DHT22;52925;52.436;-1.952;2023-12-04T05:50:17;6.90;99.90
66128;DHT22;52925;52.436;-1.952;2023-12-04T05:51:37;6.90;99.90
66128;DHT22;52925;52.436;-1.952;2023-12-04T05:52:58;6.90;99.90
66128;DHT22;52925;52.436;-1.952;2023-12-04T05:54:18;6.90;99.90
66128;DHT22;52925;52.436;-1.952;2023-12-04T05:55:39;6.90;99.90
66128;DHT22;52925;52.436;-1.952;2023-12-04T05:56:59;6.90;99.90
66128;DHT22;52925;52.436;-1.952;2023-12-04T05:58:20;6.90;99.90
66128;DHT22;52925;52.436;-1.952;2023-12-04T05:59:40;6.90;99.90
66128;DHT22;52925;52.436;-1.952;2023-12-04T06:01:03;6.90;99.90
66128;DHT22;52925;52.436;-1.952;2023-12-04T06:02:22;6.90;99.90
66128;DHT22;52925;52.436;-1.952;2023-12-04T06:03:43;6.90;99.90
66128;DHT22;52925;52.436;-1.952;2023-12-04T06:05:03;6.90;99.90
66128;DHT22;52925;52.436;-1.952;2023-12-04T06:06:24;6.90;99.90
66128;DHT22;52925;52.436;-1.952;2023-12-04T06:07:46;6.90;99.90
66128;DHT22;52925;52.436;-1.952;2023-12-04T06:09:06;6.90;99.90
66128;DHT22;52925;52.436;-1.952;2023-12-04T06:10:27;6.90;99.90
66128;DHT22;52925;52.436;-1.952;2023-12-04T06:11:47;6.90;99.90
66128;DHT22;52925;52.436;-1.952;2023-12-04T06:13:08;6.90;99.90
66128;DHT22;52925;52.436;-1.952;2023-12-04T06:14:27;6.90;99.90
66128;DHT22;52925;52.436;-1.952;2023-12-04T06:15:48;7.00;99.90
66128;DHT22;52925;52.436;-1.952;2023-12-04T06:17:09;6.90;99.90
66128;DHT22;52925;52.436;-1.952;2023-12-04T06:18:30;7.00;99.90
66128;DHT22;52925;52.436;-1.952;2023-12-04T06:19:50;6.90;99.90
66128;DHT22;52925;52.436;-1.952;2023-12-04T06:21:10;6.90;99.90
66128;DHT22;52925;52.436;-1.952;2023-12-04T06:22:30;7.00;99.90
66128;DHT22;52925;52.436;-1.952;2023-12-04T06:23:52;6.90;99.90
66128;DHT22;52925;52.436;-1.952;2023-12-04T06:25:13;7.00;99.90
66128;DHT22;52925;52.436;-1.952;2023-12-04T06:26:35;7.00;99.90
66128;DHT22;52925;52.436;-1.952;2023-12-04T06:27:56;6.90;99.90
66128;DHT22;52925;52.436;-1.952;2023-12-04T06:29:17;7.00;99.90
66128;DHT22;52925;52.436;-1.952;2023-12-04T06:30:38;7.00;99.90
66128;DHT22;52925;52.436;-1.952;2023-12-04T06:31:59;6.90;99.90
66128;DHT22;52925;52.436;-1.952;2023-12-04T06:33:21;6.90;99.90
66128;DHT22;52925;52.436;-1.952;2023-12-04T06:34:43;6.90;99.90
66128;DHT22;52925;52.436;-1.952;2023-12-04T06:36:03;7.00;99.90
66128;DHT22;52925;52.436;-1.952;2023-12-04T06:37:25;7.00;99.90
66128;DHT22;52925;52.436;-1.952;2023-12-04T06:38:47;7.00;99.90
66128;DHT22;52925;52.436;-1.952;2023-12-04T06:40:08;6.90;99.90
66128;DHT22;52925;52.436;-1.952;2023-12-04T06:41:31;7.00;99.90
66128;DHT22;52925;52.436;-1.952;2023-12-04T06:42:53;7.00;99.90
66128;DHT22;52925;52.436;-1.952;2023-12-04T06:44:13;7.00;99.90
66128;DHT22;52925;52.436;-1.952;2023-12-04T06:45:35;7.00;99.90
66128;DHT22;52925;52.436;-1.952;2023-12-04T06:46:57;7.00;99.90
66128;DHT22;52925;52.436;-1.952;2023-12-04T06:48:22;7.00;99.90
66128;DHT22;52925;52.436;-1.952;2023-12-04T06:49:42;7.00;99.90
66128;DHT22;52925;52.436;-1.952;2023-12-04T06:51:04;7.00;99.90
66128;DHT22;52925;52.436;-1.952;2023-12-04T06:52:24;7.00;99.90
66128;DHT22;52925;52.436;-1.952;2023-12-04T06:53:45;7.00;99.90
66128;DHT22;52925;52.436;-1.952;2023-12-04T06:55:06;7.00;99.90
66128;DHT22;52925;52.436;-1.952;2023-12-04T06:56:27;7.00;99.90
66128;DHT22;52925;52.436;-1.952;2023-12-04T06:57:47;7.00;99.90
66128;DHT22;52925;52.436;-1.952;2023-12-04T06:59:08;7.00;99.90
66128;DHT22;52925;52.436;-1.952;2023-12-04T07:00:28;7.00;99.90
66128;DHT22;52925;52.436;-1.952;2023-12-04T07:01:48;7.00;99.90
66128;DHT22;52925;52.436;-1.952;2023-12-04T07:03:08;7.00;99.90
66128;DHT22;52925;52.436;-1.952;2023-12-04T07:04:30;7.00;99.90
66128;DHT22;52925;52.436;-1.952;2023-12-04T17:02:14;7.40;99.90
66128;DHT22;52925;52.436;-1.952;2023-12-04T17:03:35;7.50;99.90
66128;DHT22;52925;52.436;-1.952;2023-12-04T17:04:55;7.50;99.90
66128;DHT22;52925;52.436;-1.952;2023-12-04T17:06:16;7.50;99.90
66128;DHT22;52925;52.436;-1.952;2023-12-04T17:07:36;7.50;99.90
66128;DHT22;52925;52.436;-1.952;2023-12-04T17:08:57;7.40;99.90
66128;DHT22;52925;52.436;-1.952;2023-12-04T17:10:16;7.50;99.90
66128;DHT22;52925;52.436;-1.952;2023-12-04T17:11:38;7.50;99.90
66128;DHT22;52925;52.436;-1.952;2023-12-04T17:12:58;7.50;99.90
66128;DHT22;52925;52.436;-1.952;2023-12-04T17:14:18;7.50;99.90
66128;DHT22;52925;52.436;-1.952;2023-12-04T17:15:38;7.50;99.90
66128;DHT22;52925;52.436;-1.952;2023-12-04T17:17:01;7.40;99.90
66128;DHT22;52925;52.436;-1.952;2023-12-04T17:18:22;7.40;99.90
66128;DHT22;52925;52.436;-1.952;2023-12-04T17:19:43;7.50;99.90
66128;DHT22;52925;52.436;-1.952;2023-12-04T17:21:07;7.50;99.90
66128;DHT22;52925;52.436;-1.952;2023-12-04T17:22:28;7.50;99.90
66128;DHT22;52925;52.436;-1.952;2023-12-04T17:23:48;7.50;99.90
66128;DHT22;52925;52.436;-1.952;2023-12-04T17:25:09;7.50;99.90
66128;DHT22;52925;52.436;-1.952;2023-12-04T17:26:29;7.50;99.90
66128;DHT22;52925;52.436;-1.952;2023-12-04T17:27:50;7.50;99.90
66128;DHT22;52925;52.436;-1.952;2023-12-04T17:29:09;7.50;99.90
66128;DHT22;52925;52.436;-1.952;2023-12-04T17:30:31;7.50;99.90
66128;DHT22;52925;52.436;-1.952;2023-12-04T17:31:51;7.50;99.90
66128;DHT22;52925;52.436;-1.952;2023-12-04T17:33:12;7.50;99.90
66128;DHT22;52925;52.436;-1.952;2023-12-04T17:34:34;7.50;99.90
66128;DHT22;52925;52.436;-1.952;2023-12-04T17:35:54;7.50;99.90
66128;DHT22;52925;52.436;-1.952;2023-12-04T17:37:15;7.40;99.90
66128;DHT22;52925;52.436;-1.952;2023-12-04T17:38:36;7.50;99.90
66128;DHT22;52925;52.436;-1.952;2023-12-04T17:39:56;7.50;99.90
66128;DHT22;52925;52.436;-1.952;2023-12-04T17:41:17;7.50;99.90
66128;DHT22;52925;52.436;-1.952;2023-12-04T17:42:36;7.50;99.90
66128;DHT22;52925;52.436;-1.952;2023-12-04T17:43:57;7.50;99.90
66128;DHT22;52925;52.436;-1.952;2023-12-04T17:45:17;7.50;99.90
66128;DHT22;52925;52.436;-1.952;2023-12-04T17:46:37;7.50;99.90
66128;DHT22;52925;52.436;-1.952;2023-12-04T17:47:57;7.50;99.90
66128;DHT22;52925;52.436;-1.952;2023-12-04T17:49:18;7.50;99.90
66128;DHT22;52925;52.436;-1.952;2023-12-04T17:50:39;7.40;99.90
66128;DHT22;52925;52.436;-1.952;2023-12-04T17:52:00;7.40;99.90
66128;DHT22;52925;52.436;-1.952;2023-12-04T17:53:20;7.50;99.90
66128;DHT22;52925;52.436;-1.952;2023-12-04T17:54:41;7.40;99.90
66128;DHT22;52925;52.436;-1.952;2023-12-04T17:56:01;7.50;99.90
66128;DHT22;52925;52.436;-1.952;2023-12-04T17:57:22;7.50;99.90
66128;DHT22;52925;52.436;-1.952;2023-12-04T17:58:42;7.50;99.90
66128;DHT22;52925;52.436;-1.952;2023-12-04T18:00:04;7.40;99.90
66128;DHT22;52925;52.436;-1.952;2023-12-04T18:01:28;7.40;99.90
66128;DHT22;52925;52.436;-1.952;2023-12-04T18:02:51;7.50;99.90
66128;DHT22;52925;52.436;-1.952;2023-12-04T18:04:10;7.50;99.90
66128;DHT22;52925;52.436;-1.952;2023-12-04T18:05:31;7.40;99.90
66128;DHT22;52925;52.436;-1.952;2023-12-04T18:07:22;7.20;99.90
66128;DHT22;52925;52.436;-1.952;2023-12-04T18:08:42;7.10;99.90
66128;DHT22;52925;52.436;-1.952;2023-12-04T18:10:03;7.10;99.90
66128;DHT22;52925;52.436;-1.952;2023-12-04T18:11:24;7.20;99.90
66128;DHT22;52925;52.436;-1.952;2023-12-04T18:12:44;7.30;99.90
66128;DHT22;52925;52.436;-1.952;2023-12-04T18:14:06;7.40;99.90
66128;DHT22;52925;52.436;-1.952;2023-12-04T18:15:30;7.50;99.90
66128;DHT22;52925;52.436;-1.952;2023-12-04T18:16:51;7.50;99.90
66128;DHT22;52925;52.436;-1.952;2023-12-04T18:18:11;7.60;99.90
66128;DHT22;52925;52.436;-1.952;2023-12-04T18:19:31;7.60;99.90
66128;DHT22;52925;52.436;-1.952;2023-12-04T18:20:52;7.70;99.90
66128;DHT22;52925;52.436;-1.952;2023-12-04T18:22:13;7.70;99.90
66128;DHT22;52925;52.436;-1.952;2023-12-04T18:23:34;7.80;99.90
66128;DHT22;52925;52.436;-1.952;2023-12-04T18:24:56;7.80;99.90
66128;DHT22;52925;52.436;-1.952;2023-12-04T18:26:16;7.80;99.90
66128;DHT22;52925;52.436;-1.952;2023-12-04T18:27:39;7.80;99.90
66128;DHT22;52925;52.436;-1.952;2023-12-04T18:28:59;7.70;99.90
66128;DHT22;52925;52.436;-1.952;2023-12-04T18:30:20;7.70;99.90
66128;DHT22;52925;52.436;-1.952;2023-12-04T18:31:41;7.70;99.90
66128;DHT22;52925;52.436;-1.952;2023-12-04T18:33:03;7.70;99.90
66128;DHT22;52925;52.436;-1.952;2023-12-04T18:34:24;7.60;99.90
66128;DHT22;52925;52.436;-1.952;2023-12-04T18:35:46;7.60;99.90
66128;DHT22;52925;52.436;-1.952;2023-12-04T18:37:11;7.60;99.90
66128;DHT22;52925;52.436;-1.952;2023-12-04T18:38:40;7.60;99.90
66128;DHT22;52925;52.436;-1.952;2023-12-04T18:40:03;7.60;99.90
66128;DHT22;52925;52.436;-1.952;2023-12-04T18:41:26;7.60;99.90
66128;DHT22;52925;52.436;-1.952;2023-12-04T18:42:47;7.60;99.90
66128;DHT22;52925;52.436;-1.952;2023-12-04T18:44:08;7.50;99.90
66128;DHT22;52925;52.436;-1.952;2023-12-04T18:45:29;7.60;99.90
66128;DHT22;52925;52.436;-1.952;2023-12-04T18:46:54;7.60;99.90
66128;DHT22;52925;52.436;-1.952;2023-12-04T18:48:17;7.60;99.90
66128;DHT22;52925;52.436;-1.952;2023-12-04T18:49:40;7.50;99.90
66128;DHT22;52925;52.436;-1.952;2023-12-04T18:51:00;7.50;99.90
66128;DHT22;52925;52.436;-1.952;2023-12-04T18:52:25;7.60;99.90
66128;DHT22;52925;52.436;-1.952;2023-12-04T18:53:47;7.60;99.90
66128;DHT22;52925;52.436;-1.952;2023-12-04T18:55:08;7.60;99.90
66128;DHT22;52925;52.436;-1.952;2023-12-04T18:56:28;7.60;99.90
66128;DHT22;52925;52.436;-1.952;2023-12-04T19:14:38;7.60;99.90
66128;DHT22;52925;52.436;-1.952;2023-12-04T19:15:59;7.60;99.90
66128;DHT22;52925;52.436;-1.952;2023-12-04T19:17:19;7.50;99.90
66128;DHT22;52925;52.436;-1.952;2023-12-04T19:18:39;7.60;99.90
66128;DHT22;52925;52.436;-1.952;2023-12-04T19:19:59;7.60;99.90
66128;DHT22;52925;52.436;-1.952;2023-12-04T19:21:21;7.60;99.90
66128;DHT22;52925;52.436;-1.952;2023-12-04T19:22:41;7.60;99.90
66128;DHT22;52925;52.436;-1.952;2023-12-04T19:24:02;7.50;99.90
66128;DHT22;52925;52.436;-1.952;2023-12-04T19:25:23;7.60;99.90
66128;DHT22;52925;52.436;-1.952;2023-12-04T19:26:44;7.60;99.90
66128;DHT22;52925;52.436;-1.952;2023-12-04T19:28:04;7.50;99.90
66128;DHT22;52925;52.436;-1.952;2023-12-04T19:29:25;7.50;99.90
66128;DHT22;52925;52.436;-1.952;2023-12-04T19:30:46;7.60;99.90
66128;DHT22;52925;52.436;-1.952;2023-12-04T19:32:08;7.60;99.90
66128;DHT22;52925;52.436;-1.952;2023-12-04T19:33:28;7.60;99.90
66128;DHT22;52925;52.436;-1.952;2023-12-04T19:34:50;7.50;99.90
66128;DHT22;52925;52.436;-1.952;2023-12-04T19:36:11;7.50;99.90
66128;DHT22;52925;52.436;-1.952;2023-12-04T19:37:33;7.60;99.90
66128;DHT22;52925;52.436;-1.952;2023-12-04T19:38:53;7.60;99.90
66128;DHT22;52925;52.436;-1.952;2023-12-04T19:40:14;7.50;99.90
66128;DHT22;52925;52.436;-1.952;2023-12-04T19:41:34;7.50;99.90
66128;DHT22;52925;52.436;-1.952;2023-12-04T19:42:54;7.50;99.90
66128;DHT22;52925;52.436;-1.952;2023-12-04T19:44:15;7.60;99.90
66128;DHT22;52925;52.436;-1.952;2023-12-04T19:45:36;7.50;99.90
66128;DHT22;52925;52.436;-1.952;2023-12-04T19:46:57;7.50;99.90
66128;DHT22;52925;52.436;-1.952;2023-12-04T19:48:18;7.60;99.90
66128;DHT22;52925;52.436;-1.952;2023-12-04T19:49:41;7.60;99.90
66128;DHT22;52925;52.436;-1.952;2023-12-04T19:51:03;7.60;99.90
66128;DHT22;52925;52.436;-1.952;2023-12-04T19:52:30;7.60;99.90
66128;DHT22;52925;52.436;-1.952;2023-12-04T19:53:52;7.60;99.90
66128;DHT22;52925;52.436;-1.952;2023-12-04T19:55:13;7.60;99.90
66128;DHT22;52925;52.436;-1.952;2023-12-04T19:56:37;7.60;99.90
66128;DHT22;52925;52.436;-1.952;2023-12-04T19:58:47;7.60;99.90
66128;DHT22;52925;52.436;-1.952;2023-12-04T20:00:19;7.60;99.90
66128;DHT22;52925;52.436;-1.952;2023-12-04T20:01:40;7.60;99.90
66128;DHT22;52925;52.436;-1.952;2023-12-04T20:03:03;7.60;99.90
66128;DHT22;52925;52.436;-1.952;2023-12-04T20:04:25;7.60;99.90
66128;DHT22;52925;52.436;-1.952;2023-12-04T20:05:53;7.50;99.90
66128;DHT22;52925;52.436;-1.952;2023-12-04T20:07:13;7.50;99.90
66128;DHT22;52925;52.436;-1.952;2023-12-04T20:08:34;7.60;99.90
66128;DHT22;52925;52.436;-1.952;2023-12-04T20:09:53;7.70;99.90
66128;DHT22;52925;52.436;-1.952;2023-12-04T20:11:14;7.60;99.90
66128;DHT22;52925;52.436;-1.952;2023-12-04T20:12:34;7.60;99.90
66128;DHT22;52925;52.436;-1.952;2023-12-04T20:13:55;7.60;99.90
66128;DHT22;52925;52.436;-1.952;2023-12-04T20:15:15;7.60;99.90
66128;DHT22;52925;52.436;-1.952;2023-12-04T20:16:36;7.60;99.90
66128;DHT22;52925;52.436;-1.952;2023-12-04T20:17:56;7.60;99.90
66128;DHT22;52925;52.436;-1.952;2023-12-04T20:19:19;7.60;99.90
66128;DHT22;52925;52.436;-1.952;2023-12-04T20:20:39;7.60;99.90
66128;DHT22;52925;52.436;-1.952;2023-12-04T20:22:00;7.60;99.90
66128;DHT22;52925;52.436;-1.952;2023-12-04T20:23:20;7.60;99.90
66128;DHT22;52925;52.436;-1.952;2023-12-04T20:24:42;7.60;99.90
66128;DHT22;52925;52.436;-1.952;2023-12-04T20:26:04;7.60;99.90
66128;DHT22;52925;52.436;-1.952;2023-12-04T20:27:25;7.60;99.90
66128;DHT22;52925;52.436;-1.952;2023-12-04T20:28:45;7.60;99.90
66128;DHT22;52925;52.436;-1.952;2023-12-04T20:30:07;7.60;99.90
66128;DHT22;52925;52.436;-1.952;2023-12-04T20:31:28;7.60;99.90
66128;DHT22;52925;52.436;-1.952;2023-12-04T20:32:49;7.60;99.90
66128;DHT22;52925;52.436;-1.952;2023-12-04T20:34:08;7.60;99.90
66128;DHT22;52925;52.436;-1.952;2023-12-04T20:35:32;7.60;99.90
66128;DHT22;52925;52.436;-1.952;2023-12-04T20:36:53;7.60;99.90
66128;DHT22;52925;52.436;-1.952;2023-12-04T20:38:15;7.60;99.90
66128;DHT22;52925;52.436;-1.952;2023-12-04T20:39:36;7.60;99.90
66128;DHT22;52925;52.436;-1.952;2023-12-04T20:40:57;7.60;99.90
66128;DHT22;52925;52.436;-1.952;2023-12-04T20:42:17;7.60;99.90
66128;DHT22;52925;52.436;-1.952;2023-12-04T20:43:38;7.50;99.90
66128;DHT22;52925;52.436;-1.952;2023-12-04T20:44:58;7.60;99.90
66128;DHT22;52925;52.436;-1.952;2023-12-04T20:46:19;7.50;99.90
66128;DHT22;52925;52.436;-1.952;2023-12-04T20:47:39;7.50;99.90
66128;DHT22;52925;52.436;-1.952;2023-12-04T20:49:00;7.60;99.90
66128;DHT22;52925;52.436;-1.952;2023-12-04T20:50:22;7.60;99.90
66128;DHT22;52925;52.436;-1.952;2023-12-04T20:51:45;7.60;99.90
66128;DHT22;52925;52.436;-1.952;2023-12-04T20:53:05;7.60;99.90
66128;DHT22;52925;52.436;-1.952;2023-12-04T20:54:26;7.60;99.90
66128;DHT22;52925;52.436;-1.952;2023-12-04T20:55:46;7.50;99.90
66128;DHT22;52925;52.436;-1.952;2023-12-04T20:57:06;7.50;99.90
66128;DHT22;52925;52.436;-1.952;2023-12-04T20:58:26;7.50;99.90
66128;DHT22;52925;52.436;-1.952;2023-12-04T20:59:47;7.50;99.90
66128;DHT22;52925;52.436;-1.952;2023-12-04T21:01:06;7.50;99.90
66128;DHT22;52925;52.436;-1.952;2023-12-04T21:02:33;7.50;99.90
66128;DHT22;52925;52.436;-1.952;2023-12-04T21:03:53;7.50;99.90
66128;DHT22;52925;52.436;-1.952;2023-12-04T21:05:15;7.50;99.90
66128;DHT22;52925;52.436;-1.952;2023-12-04T21:06:35;7.50;99.90
66128;DHT22;52925;52.436;-1.952;2023-12-04T21:07:58;7.50;99.90
66128;DHT22;52925;52.436;-1.952;2023-12-04T21:09:17;7.60;99.90
66128;DHT22;52925;52.436;-1.952;2023-12-04T21:10:38;7.50;99.90
66128;DHT22;52925;52.436;-1.952;2023-12-04T21:12:00;7.50;99.90
66128;DHT22;52925;52.436;-1.952;2023-12-04T21:13:20;7.60;99.90
66128;DHT22;52925;52.436;-1.952;2023-12-04T21:14:40;7.50;99.90
66128;DHT22;52925;52.436;-1.952;2023-12-04T21:16:01;7.50;99.90
66128;DHT22;52925;52.436;-1.952;2023-12-04T21:17:22;7.50;99.90
66128;DHT22;52925;52.436;-1.952;2023-12-04T21:18:42;7.50;99.90
66128;DHT22;52925;52.436;-1.952;2023-12-04T21:20:04;7.50;99.90
66128;DHT22;52925;52.436;-1.952;2023-12-04T21:21:26;7.60;99.90
66128;DHT22;52925;52.436;-1.952;2023-12-04T21:22:47;7.60;99.90
66128;DHT22;52925;52.436;-1.952;2023-12-04T21:24:08;7.60;99.90
66128;DHT22;52925;52.436;-1.952;2023-12-04T21:25:29;7.50;99.90
66128;DHT22;52925;52.436;-1.952;2023-12-04T21:26:49;7.50;99.90
66128;DHT22;52925;52.436;-1.952;2023-12-04T21:28:10;7.50;99.90
66128;DHT22;52925;52.436;-1.952;2023-12-04T21:29:30;7.50;99.90
66128;DHT22;52925;52.436;-1.952;2023-12-04T21:30:52;7.60;99.90
66128;DHT22;52925;52.436;-1.952;2023-12-04T21:32:12;7.50;99.90
66128;DHT22;52925;52.436;-1.952;2023-12-04T21:33:33;7.50;99.90
66128;DHT22;52925;52.436;-1.952;2023-12-04T21:34:53;7.60;99.90
66128;DHT22;52925;52.436;-1.952;2023-12-04T21:36:13;7.50;99.90
66128;DHT22;52925;52.436;-1.952;2023-12-04T21:37:33;7.60;99.90
66128;DHT22;52925;52.436;-1.952;2023-12-04T21:38:54;7.50;99.90
66128;DHT22;52925;52.436;-1.952;2023-12-04T21:40:16;7.60;99.90
66128;DHT22;52925;52.436;-1.952;2023-12-04T21:41:37;7.60;99.90
66128;DHT22;52925;52.436;-1.952;2023-12-04T21:42:57;7.60;99.90
66128;DHT22;52925;52.436;-1.952;2023-12-04T21:44:18;7.60;99.90
66128;DHT22;52925;52.436;-1.952;2023-12-04T21:45:38;7.50;99.90
66128;DHT22;52925;52.436;-1.952;2023-12-04T21:46:59;7.50;99.90
66128;DHT22;52925;52.436;-1.952;2023-12-04T21:48:18;7.50;99.90
66128;DHT22;52925;52.436;-1.952;2023-12-04T21:49:39;7.50;99.90
66128;DHT22;52925;52.436;-1.952;2023-12-04T21:53:43;7.50;99.90
66128;DHT22;52925;52.436;-1.952;2023-12-04T21:55:04;7.50;99.90
66128;DHT22;52925;52.436;-1.952;2023-12-04T21:56:28;7.50;99.90
66128;DHT22;52925;52.436;-1.952;2023-12-04T21:58:04;7.50;99.90
66128;DHT22;52925;52.436;-1.952;2023-12-04T21:59:24;7.50;99.90
66128;DHT22;52925;52.436;-1.952;2023-12-04T22:00:59;7.50;99.90
66128;DHT22;52925;52.436;-1.952;2023-12-04T22:02:29;7.50;99.90
66128;DHT22;52925;52.436;-1.952;2023-12-04T22:03:51;7.50;99.90
66128;DHT22;52925;52.436;-1.952;2023-12-04T22:05:11;7.60;99.90
66128;DHT22;52925;52.436;-1.952;2023-12-04T22:06:31;7.60;99.90
66128;DHT22;52925;52.436;-1.952;2023-12-04T22:07:52;7.50;99.90
66128;DHT22;52925;52.436;-1.952;2023-12-04T22:09:12;7.50;99.90
66128;DHT22;52925;52.436;-1.952;2023-12-04T22:10:33;7.50;99.90
66128;DHT22;52925;52.436;-1.952;2023-12-04T22:12:10;7.50;99.90
66128;DHT22;52925;52.436;-1.952;2023-12-04T22:13:38;7.50;99.90
66128;DHT22;52925;52.436;-1.952;2023-12-04T22:14:59;7.50;99.90
66128;DHT22;52925;52.436;-1.952;2023-12-04T22:16:19;7.50;99.90
66128;DHT22;52925;52.436;-1.952;2023-12-04T22:17:40;7.50;99.90
66128;DHT22;52925;52.436;-1.952;2023-12-04T22:19:01;7.50;99.90
66128;DHT22;52925;52.436;-1.952;2023-12-04T22:20:22;7.50;99.90
66128;DHT22;52925;52.436;-1.952;2023-12-04T22:21:42;7.50;99.90
66128;DHT22;52925;52.436;-1.952;2023-12-04T22:23:03;7.60;99.90
66128;DHT22;52925;52.436;-1.952;2023-12-04T22:24:24;7.60;99.90
66128;DHT22;52925;52.436;-1.952;2023-12-04T22:25:45;7.60;99.90
66128;DHT22;52925;52.436;-1.952;2023-12-04T22:27:31;7.50;99.90
66128;DHT22;52925;52.436;-1.952;2023-12-04T22:31:10;7.60;99.90
66128;DHT22;52925;52.436;-1.952;2023-12-04T22:32:29;7.50;99.90
66128;DHT22;52925;52.436;-1.952;2023-12-04T22:33:50;7.50;99.90
66128;DHT22;52925;52.436;-1.952;2023-12-04T22:35:14;7.50;99.90
66128;DHT22;52925;52.436;-1.952;2023-12-04T22:36:35;7.50;99.90
66128;DHT22;52925;52.436;-1.952;2023-12-04T22:37:56;7.50;99.90
66128;DHT22;52925;52.436;-1.952;2023-12-04T22:39:19;7.50;99.90
66128;DHT22;52925;52.436;-1.952;2023-12-04T22:40:39;7.50;99.90
66128;DHT22;52925;52.436;-1.952;2023-12-04T22:42:12;7.50;99.90
66128;DHT22;52925;52.436;-1.952;2023-12-04T22:43:34;7.50;99.90
66128;DHT22;52925;52.436;-1.952;2023-12-04T22:44:54;7.50;99.90
66128;DHT22;52925;52.436;-1.952;2023-12-04T22:46:14;7.50;99.90
66128;DHT22;52925;52.436;-1.952;2023-12-04T22:47:43;7.50;99.90
66128;DHT22;52925;52.436;-1.952;2023-12-04T22:49:27;7.50;99.90
66128;DHT22;52925;52.436;-1.952;2023-12-04T22:50:56;7.50;99.90
66128;DHT22;52925;52.436;-1.952;2023-12-04T22:52:17;7.50;99.90
66128;DHT22;52925;52.436;-1.952;2023-12-04T22:53:39;7.50;99.90
66128;DHT22;52925;52.436;-1.952;2023-12-04T22:55:05;7.50;99.90
66128;DHT22;52925;52.436;-1.952;2023-12-04T22:56:25;7.50;99.90
66128;DHT22;52925;52.436;-1.952;2023-12-04T22:58:01;7.50;99.90
66128;DHT22;52925;52.436;-1.952;2023-12-04T22:59:33;7.50;99.90
66128;DHT22;52925;52.436;-1.952;2023-12-04T23:00:53;7.50;99.90
66128;DHT22;52925;52.436;-1.952;2023-12-04T23:02:14;7.40;99.90
66128;DHT22;52925;52.436;-1.952;2023-12-04T23:03:35;7.40;99.90
66128;DHT22;52925;52.436;-1.952;2023-12-04T23:04:56;7.50;99.90
66128;DHT22;52925;52.436;-1.952;2023-12-04T23:06:17;7.50;99.90
66128;DHT22;52925;52.436;-1.952;2023-12-04T23:08:03;7.40;99.90
66128;DHT22;52925;52.436;-1.952;2023-12-04T23:09:25;7.50;99.90
66128;DHT22;52925;52.436;-1.952;2023-12-04T23:10:44;7.40;99.90
66128;DHT22;52925;52.436;-1.952;2023-12-04T23:12:06;7.40;99.90
66128;DHT22;52925;52.436;-1.952;2023-12-04T23:13:26;7.40;99.90
66128;DHT22;52925;52.436;-1.952;2023-12-04T23:14:48;7.40;99.90
